createdAt,value
2018-01-31T02:24:18.149Z,7.10
2018-01-31T02:26:45.601Z,6.90
2018-01-31T02:29:13.044Z,7.43
2018-01-31T02:31:42.490Z,5.87
2018-01-31T02:34:09.893Z,6.43
2018-01-31T02:36:37.322Z,5.70
2018-01-31T02:39:16.759Z,6.32
2018-01-31T02:41:46.012Z,5.40
2018-01-31T02:44:13.455Z,6.75
2018-01-31T02:46:41.922Z,5.00
2018-01-31T02:49:09.333Z,5.28
2018-01-31T02:51:38.780Z,5.05
2018-01-31T02:54:06.723Z,6.32
2018-01-31T02:56:34.452Z,5.80
2018-01-31T02:59:02.524Z,5.10
2018-01-31T03:01:30.853Z,5.32
2018-01-31T03:03:59.520Z,5.80
2018-01-31T03:06:27.609Z,6.12
2018-01-31T03:08:55.273Z,5.43
2018-01-31T03:11:23.429Z,6.00
2018-01-31T03:13:52.329Z,5.00
2018-01-31T03:16:21.106Z,4.80
2018-01-31T03:18:49.280Z,5.15
2018-01-31T03:21:17.654Z,6.25
2018-01-31T03:23:46.578Z,4.75
2018-01-31T03:26:15.361Z,4.68
2018-01-31T03:28:45.362Z,5.40
2018-01-31T03:31:13.843Z,5.05
2018-01-31T03:33:42.110Z,4.78
2018-01-31T03:36:09.703Z,5.25
2018-01-31T03:38:38.659Z,5.90
2018-01-31T03:41:07.461Z,3.75
2018-01-31T03:43:34.933Z,4.47
2018-01-31T03:46:02.373Z,5.50
2018-01-31T03:48:29.806Z,4.40
2018-01-31T03:50:57.633Z,5.18
2018-01-31T03:53:25.099Z,5.00
2018-01-31T03:55:53.397Z,5.10
2018-01-31T03:58:20.836Z,4.62
2018-01-31T04:00:48.272Z,4.93
2018-01-31T04:03:15.716Z,4.18
2018-01-31T04:05:43.142Z,5.05
2018-01-31T04:08:10.985Z,4.47
2018-01-31T04:10:38.413Z,3.78
2018-01-31T04:13:05.857Z,3.92
2018-01-31T04:15:33.313Z,3.55
2018-01-31T04:18:00.765Z,4.70
2018-01-31T04:20:28.197Z,3.40
2018-01-31T04:22:56.040Z,4.20
2018-01-31T04:25:25.426Z,3.80
2018-01-31T04:27:52.872Z,4.05
2018-01-31T04:30:20.317Z,4.18
2018-01-31T04:32:48.629Z,3.65
2018-01-31T04:35:16.070Z,2.87
2018-01-31T04:37:45.491Z,3.25
2018-01-31T04:40:12.899Z,3.92
2018-01-31T04:42:40.337Z,2.75
2018-01-31T04:45:07.778Z,3.40
2018-01-31T04:47:35.606Z,2.67
2018-01-31T04:50:03.081Z,2.80
2018-01-31T04:52:30.542Z,3.22
2018-01-31T04:54:57.986Z,3.50
2018-01-31T04:57:25.454Z,2.30
2018-01-31T04:59:52.894Z,2.60
2018-01-31T05:02:20.368Z,2.65
2018-01-31T05:04:47.806Z,2.97
2018-01-31T05:07:15.804Z,3.42
2018-01-31T05:09:43.222Z,2.90
2018-01-31T05:12:11.710Z,3.37
2018-01-31T05:14:39.157Z,3.10
2018-01-31T05:17:06.605Z,2.85
2018-01-31T05:19:34.040Z,2.90
2018-01-31T05:22:01.478Z,2.33
2018-01-31T05:24:29.318Z,2.50
2018-01-31T05:26:56.765Z,2.55
2018-01-31T05:29:24.211Z,3.35
2018-01-31T05:31:51.677Z,2.80
2018-01-31T05:34:19.101Z,2.35
2018-01-31T05:36:47.389Z,3.28
2018-01-31T05:39:14.837Z,2.22
2018-01-31T05:41:42.351Z,2.40
2018-01-31T05:44:10.666Z,2.75
2018-01-31T05:46:38.115Z,3.08
2018-01-31T05:49:05.540Z,2.60
2018-01-31T05:51:32.989Z,2.85
2018-01-31T05:54:00.423Z,1.83
2018-01-31T05:56:27.863Z,2.08
2018-01-31T05:58:55.333Z,1.83
2018-01-31T06:01:22.769Z,1.70
2018-01-31T06:03:54.156Z,2.65
2018-01-31T06:06:22.509Z,2.03
2018-01-31T06:08:51.896Z,2.20
2018-01-31T06:11:20.074Z,1.77
2018-01-31T06:13:48.297Z,2.03
2018-01-31T06:16:15.752Z,2.15
2018-01-31T06:18:45.137Z,1.60
2018-01-31T06:21:12.590Z,2.15
2018-01-31T06:23:40.049Z,2.28
2018-01-31T06:26:07.482Z,2.35
2018-01-31T06:28:35.853Z,1.27
2018-01-31T06:31:03.306Z,1.70
2018-01-31T06:33:31.313Z,2.05
2018-01-31T06:35:58.745Z,1.70
2018-01-31T06:41:00.545Z,1.65
2018-01-31T06:43:27.981Z,1.70
2018-01-31T06:45:55.423Z,1.60
2018-01-31T06:48:27.622Z,1.52
2018-01-31T06:50:55.870Z,1.40
2018-01-31T06:53:23.309Z,1.30
2018-01-31T06:55:51.633Z,1.25
2018-01-31T06:58:19.065Z,1.12
2018-01-31T07:00:46.513Z,1.30
2018-01-31T07:03:13.953Z,1.10
2018-01-31T07:05:41.401Z,1.12
2018-01-31T07:08:09.231Z,1.27
2018-01-31T07:10:36.696Z,1.48
2018-01-31T07:13:04.149Z,0.70
2018-01-31T07:15:31.584Z,1.00
2018-01-31T07:18:00.633Z,1.15
2018-01-31T07:20:28.452Z,0.90
2018-01-31T07:22:55.929Z,0.73
2018-01-31T07:25:24.281Z,1.23
2018-01-31T07:27:51.742Z,0.70
2018-01-31T07:33:33.591Z,0.93
2018-01-31T07:36:01.823Z,0.93
2018-01-31T07:47:39.003Z,1.25
2018-01-31T08:28:33.065Z,1.00
2018-01-31T08:31:00.905Z,0.60
2018-01-31T08:33:29.194Z,1.10
2018-01-31T08:35:57.913Z,0.75
2018-01-31T08:38:27.012Z,0.90
2018-01-31T08:40:55.379Z,0.70
2018-01-31T08:43:22.861Z,0.80
2018-01-31T08:45:50.289Z,0.80
2018-01-31T08:48:17.725Z,0.80
2018-01-31T08:50:45.544Z,0.60
2018-01-31T08:53:12.984Z,0.90
2018-01-31T08:55:40.400Z,1.20
2018-01-31T08:58:10.163Z,0.77
2018-01-31T09:00:37.596Z,0.50
2018-01-31T09:03:06.971Z,0.70
2018-01-31T09:05:35.729Z,0.82
2018-01-31T09:08:03.224Z,0.60
2018-01-31T09:10:30.652Z,0.80
2018-01-31T09:12:58.093Z,0.52
2018-01-31T09:15:25.527Z,0.70
2018-01-31T09:17:53.848Z,0.60
2018-01-31T09:20:21.283Z,0.50
2018-01-31T09:22:48.709Z,0.40
2018-01-31T09:25:17.048Z,0.40
2018-01-31T09:27:44.929Z,0.50
2018-01-31T09:30:12.773Z,0.50
2018-01-31T09:32:40.539Z,0.40
2018-01-31T09:35:08.845Z,0.50
2018-01-31T09:37:36.333Z,0.50
2018-01-31T09:40:03.789Z,0.73
2018-01-31T09:42:31.963Z,0.60
2018-01-31T09:44:59.790Z,0.60
2018-01-31T09:47:27.641Z,0.60
2018-01-31T09:49:55.129Z,0.43
2018-01-31T09:52:22.737Z,0.65
2018-01-31T09:54:51.069Z,0.60
2018-01-31T09:57:18.509Z,0.50
2018-01-31T09:59:46.364Z,0.57
2018-01-31T10:04:47.510Z,0.40
2018-01-31T10:07:14.954Z,0.47
2018-01-31T10:09:42.409Z,0.40
2018-01-31T10:12:09.891Z,0.50
2018-01-31T10:14:37.734Z,0.65
2018-01-31T10:17:05.178Z,0.60
2018-01-31T10:19:34.550Z,0.50
2018-01-31T10:22:02.799Z,0.50
2018-01-31T10:24:32.529Z,0.50
2018-01-31T10:26:59.955Z,0.60
2018-01-31T10:29:27.841Z,0.55
2018-01-31T10:31:55.243Z,0.52
2018-01-31T10:34:22.704Z,0.40
2018-01-31T10:36:50.127Z,0.60
2018-01-31T10:39:17.569Z,0.70
2018-01-31T10:41:45.441Z,0.60
2018-01-31T10:44:12.880Z,0.40
2018-01-31T10:46:40.707Z,0.70
2018-01-31T10:49:08.151Z,0.55
2018-01-31T10:51:36.529Z,0.60
2018-01-31T10:59:00.143Z,1.10
2018-01-31T11:01:27.580Z,0.70
2018-01-31T11:03:55.005Z,0.80
2018-01-31T11:06:24.673Z,1.00
2018-01-31T11:08:54.333Z,0.80
2018-01-31T11:11:21.764Z,0.98
2018-01-31T11:13:49.590Z,0.90
2018-01-31T11:16:18.924Z,0.85
2018-01-31T11:18:47.204Z,0.98
2018-01-31T11:21:14.684Z,0.68
2018-01-31T11:23:45.894Z,1.10
2018-01-31T11:26:16.137Z,0.82
2018-01-31T11:28:44.823Z,0.85
2018-01-31T11:31:12.665Z,0.60
2018-01-31T11:33:40.506Z,0.80
2018-01-31T11:36:07.930Z,0.82
2018-01-31T11:38:35.369Z,1.00
2018-01-31T11:41:02.825Z,1.02
2018-01-31T11:43:30.649Z,0.95
2018-01-31T11:45:58.104Z,1.10
2018-01-31T11:48:25.564Z,0.70
2018-01-31T11:50:55.064Z,0.82
2018-01-31T11:53:22.529Z,0.93
2018-01-31T11:55:49.968Z,1.15
2018-01-31T11:58:17.426Z,0.95
2018-01-31T12:00:48.747Z,1.00
2018-01-31T12:03:16.185Z,1.00
2018-01-31T12:05:44.015Z,1.00
2018-01-31T12:08:13.401Z,1.08
2018-01-31T12:10:41.906Z,1.02
2018-01-31T12:13:21.168Z,0.90
2018-01-31T12:16:00.914Z,0.93
2018-01-31T12:18:38.088Z,1.00
2018-01-31T12:21:17.831Z,1.10
2018-01-31T12:27:04.181Z,1.10
2018-01-31T12:29:56.650Z,0.80
2018-01-31T12:32:35.888Z,1.00
2018-01-31T12:35:15.282Z,1.60
2018-01-31T12:37:54.734Z,1.52
2018-01-31T12:40:22.640Z,0.90
2018-01-31T12:42:50.516Z,1.45
2018-01-31T12:45:17.542Z,1.00
2018-01-31T12:47:52.985Z,1.10
2018-01-31T12:50:32.392Z,1.35
2018-01-31T12:53:11.758Z,1.15
2018-01-31T12:59:13.768Z,1.55
2018-01-31T13:01:53.166Z,1.23
2018-01-31T13:04:33.490Z,1.20
2018-01-31T13:07:12.645Z,1.30
2018-01-31T13:09:51.912Z,1.35
2018-01-31T13:12:31.295Z,1.48
2018-01-31T13:15:11.096Z,1.20
2018-01-31T13:17:51.522Z,1.45
2018-01-31T13:20:30.989Z,1.15
2018-01-31T13:22:58.436Z,1.27
2018-01-31T13:25:38.011Z,1.75
2018-01-31T13:28:23.040Z,1.20
2018-01-31T13:31:04.180Z,1.15
2018-01-31T13:33:44.950Z,1.20
2018-01-31T13:36:24.334Z,1.92
2018-01-31T13:39:03.670Z,1.65
2018-01-31T13:41:43.144Z,1.50
2018-01-31T13:44:23.512Z,1.92
2018-01-31T13:47:02.822Z,0.90
2018-01-31T13:49:42.245Z,1.30
2018-01-31T13:52:25.681Z,1.17
2018-01-31T13:55:04.836Z,0.88
2018-01-31T13:57:44.298Z,1.25
2018-01-31T14:00:23.956Z,1.27
2018-01-31T14:03:03.758Z,1.20
2018-01-31T14:05:43.101Z,0.80
2018-01-31T14:08:22.438Z,1.37
2018-01-31T14:10:58.564Z,1.37
2018-01-31T14:13:48.692Z,1.50
2018-01-31T14:16:27.903Z,1.10
2018-01-31T14:19:08.132Z,1.20
2018-01-31T14:21:47.535Z,1.05
2018-01-31T14:24:35.771Z,1.23
2018-01-31T14:27:15.099Z,1.30
2018-01-31T14:29:55.597Z,1.20
2018-01-31T14:32:35.034Z,0.80
2018-01-31T14:35:14.305Z,1.12
2018-01-31T14:37:41.249Z,1.50
2018-01-31T14:40:08.234Z,1.10
2018-01-31T14:42:35.183Z,1.10
2018-01-31T14:45:03.036Z,1.08
2018-01-31T14:47:30.896Z,0.90
2018-01-31T14:49:57.908Z,0.82
2018-01-31T14:52:24.829Z,1.20
2018-01-31T14:54:53.136Z,0.75
2018-01-31T14:57:20.080Z,0.90
2018-01-31T14:59:47.031Z,1.40
2018-01-31T15:02:13.964Z,1.10
2018-01-31T15:04:40.928Z,0.80
2018-01-31T15:07:07.868Z,1.35
2018-01-31T15:09:35.804Z,1.02
2018-01-31T15:12:02.772Z,1.10
2018-01-31T15:14:29.713Z,1.00
2018-01-31T15:16:56.693Z,0.60
2018-01-31T15:19:23.628Z,0.75
2018-01-31T15:21:50.603Z,0.98
2018-01-31T15:24:18.478Z,1.05
2018-01-31T15:26:45.832Z,0.70
2018-01-31T15:29:14.187Z,0.93
2018-01-31T15:31:41.880Z,0.93
2018-01-31T15:34:10.157Z,1.15
2018-01-31T15:36:37.131Z,0.90
2018-01-31T15:39:04.079Z,1.00
2018-01-31T15:41:31.021Z,0.80
2018-01-31T15:43:57.989Z,1.17
2018-01-31T15:46:24.933Z,0.93
2018-01-31T15:48:51.876Z,0.88
2018-01-31T15:51:18.820Z,0.65
2018-01-31T15:53:47.428Z,1.08
2018-01-31T15:56:15.300Z,0.90
2018-01-31T15:58:43.141Z,0.85
2018-01-31T16:01:10.096Z,0.77
2018-01-31T16:03:37.032Z,1.17
2018-01-31T16:06:03.993Z,0.70
2018-01-31T16:08:30.932Z,0.65
2018-01-31T16:10:57.888Z,1.58
2018-01-31T16:13:25.755Z,0.85
2018-01-31T16:15:52.710Z,1.08
2018-01-31T16:18:31.891Z,0.77
2018-01-31T16:21:11.315Z,0.88
2018-01-31T16:23:39.616Z,0.82
2018-01-31T16:26:07.052Z,0.80
2018-01-31T16:28:46.208Z,1.00
2018-01-31T16:31:17.282Z,1.05
2018-01-31T16:33:44.747Z,1.12
2018-01-31T16:36:14.004Z,1.30
2018-01-31T16:38:41.445Z,1.20
2018-01-31T16:41:10.822Z,1.23
2018-01-31T16:43:38.669Z,0.80
2018-01-31T16:46:06.980Z,1.52
2018-01-31T16:48:34.412Z,1.05
2018-01-31T16:51:02.243Z,0.88
2018-01-31T16:53:29.884Z,1.12
2018-01-31T16:55:58.120Z,1.10
2018-01-31T16:58:25.957Z,1.30
2018-01-31T17:00:53.388Z,1.08
2018-01-31T17:03:20.828Z,0.73
2018-01-31T17:05:48.320Z,1.00
2018-01-31T17:08:15.813Z,1.20
2018-01-31T17:10:43.656Z,1.35
2018-01-31T17:13:12.144Z,1.37
2018-01-31T17:15:39.633Z,1.75
2018-01-31T17:18:07.106Z,1.20
2018-01-31T17:20:34.586Z,1.08
2018-01-31T17:23:02.027Z,0.90
2018-01-31T17:25:29.496Z,1.25
2018-01-31T17:27:56.938Z,1.23
2018-01-31T17:30:25.248Z,3.15
2018-01-31T17:32:52.682Z,1.67
2018-01-31T17:35:21.097Z,0.70
2018-01-31T17:37:48.536Z,1.12
2018-01-31T17:40:15.977Z,1.10
2018-01-31T17:42:43.424Z,1.60
2018-01-31T17:45:10.852Z,1.33
2018-01-31T17:47:38.298Z,1.23
2018-01-31T17:50:06.129Z,1.10
2018-01-31T17:52:34.605Z,1.40
2018-01-31T17:55:02.030Z,1.17
2018-01-31T17:57:29.466Z,1.45
2018-01-31T17:59:57.310Z,1.30
2018-01-31T18:02:25.511Z,1.23
2018-01-31T18:04:53.337Z,1.35
2018-01-31T18:07:20.784Z,1.40
2018-01-31T18:09:48.204Z,1.10
2018-01-31T18:12:17.561Z,1.20
2018-01-31T18:14:45.003Z,1.10
2018-01-31T18:17:12.440Z,0.77
2018-01-31T18:19:40.141Z,1.00
2018-01-31T18:22:07.562Z,0.90
2018-01-31T18:24:35.010Z,0.90
2018-01-31T18:27:02.437Z,0.90
2018-01-31T18:29:30.272Z,0.93
2018-01-31T18:31:57.700Z,0.90
2018-01-31T18:34:25.146Z,0.60
2018-01-31T18:36:52.583Z,0.95
2018-01-31T18:39:20.013Z,0.85
2018-01-31T18:41:47.880Z,1.02
2018-01-31T18:44:15.749Z,0.93
2018-01-31T18:46:43.949Z,1.50
2018-01-31T18:49:11.782Z,1.10
2018-01-31T18:51:39.205Z,1.12
2018-01-31T18:54:06.741Z,1.23
2018-01-31T18:56:34.201Z,1.10
2018-01-31T18:59:01.645Z,1.60
2018-01-31T19:01:29.941Z,1.23
2018-01-31T19:03:57.383Z,1.30
2018-01-31T19:06:25.768Z,1.77
2018-01-31T19:08:54.094Z,1.48
2018-01-31T19:11:21.521Z,1.50
2018-01-31T19:13:48.968Z,2.15
2018-01-31T19:16:16.416Z,1.30
2018-01-31T19:18:43.872Z,1.20
2018-01-31T19:21:11.309Z,1.30
2018-01-31T19:23:39.653Z,1.40
2018-01-31T19:26:07.093Z,1.40
2018-01-31T19:28:34.527Z,1.70
2018-01-31T19:31:02.024Z,1.05
2018-01-31T19:33:29.449Z,1.10
2018-01-31T19:35:56.889Z,1.00
2018-01-31T19:38:24.813Z,1.23
2018-01-31T19:40:53.186Z,1.00
2018-01-31T19:43:20.609Z,0.88
2018-01-31T19:45:48.052Z,0.75
2018-01-31T19:48:15.480Z,1.00
2018-01-31T19:50:42.911Z,0.65
2018-01-31T19:53:10.349Z,0.70
2018-01-31T19:55:39.721Z,0.50
2018-01-31T19:58:07.153Z,0.60
2018-01-31T20:00:34.981Z,0.60
2018-01-31T20:03:02.409Z,0.55
2018-01-31T20:05:29.856Z,0.88
2018-01-31T20:07:57.513Z,1.12
2018-01-31T20:10:24.953Z,0.70
2018-01-31T20:12:52.610Z,0.80
2018-01-31T20:15:20.451Z,0.62
2018-01-31T20:17:47.873Z,1.00
2018-01-31T20:20:15.301Z,0.70
2018-01-31T20:22:42.733Z,1.65
2018-01-31T20:25:11.429Z,0.55
2018-01-31T20:27:40.113Z,0.82
2018-01-31T20:30:08.838Z,0.93
2018-01-31T20:32:36.260Z,0.93
2018-01-31T20:35:04.365Z,1.30
2018-01-31T20:37:31.818Z,0.70
2018-01-31T20:39:59.248Z,1.00
2018-01-31T20:42:27.537Z,0.80
2018-01-31T20:44:54.985Z,1.20
2018-01-31T20:47:23.369Z,0.70
2018-01-31T20:49:50.809Z,0.70
2018-01-31T20:52:18.645Z,0.65
2018-01-31T20:54:46.632Z,0.50
2018-01-31T20:57:14.075Z,5.10
2018-01-31T20:59:41.526Z,0.40
2018-01-31T21:02:08.989Z,0.60
2018-01-31T21:04:36.432Z,0.50
2018-01-31T21:07:03.877Z,0.47
2018-01-31T21:09:31.624Z,0.45
2018-01-31T21:11:59.934Z,0.50
2018-01-31T21:14:27.377Z,0.40
2018-01-31T21:16:54.817Z,0.40
2018-01-31T21:19:22.269Z,0.40
2018-01-31T21:21:49.713Z,0.82
2018-01-31T21:24:17.145Z,0.80
2018-01-31T21:26:44.977Z,1.45
2018-01-31T21:29:12.421Z,0.65
2018-01-31T21:31:39.865Z,0.50
2018-01-31T21:34:07.313Z,0.70
2018-01-31T21:36:34.753Z,0.60
2018-01-31T21:39:04.182Z,0.70
2018-01-31T21:41:31.609Z,0.55
2018-01-31T21:43:59.442Z,0.50
2018-01-31T21:46:26.869Z,0.45
2018-01-31T21:48:56.365Z,0.45
2018-01-31T21:51:23.805Z,0.60
2018-01-31T21:53:51.261Z,0.50
2018-01-31T21:56:19.984Z,0.40
2018-01-31T21:58:47.424Z,0.60
2018-01-31T22:01:14.852Z,0.60
2018-01-31T22:03:42.685Z,1.35
2018-01-31T22:06:11.009Z,0.40
2018-01-31T22:08:38.587Z,0.40
2018-01-31T22:11:06.037Z,0.40
2018-01-31T22:13:33.478Z,0.40
2018-01-31T22:16:00.918Z,0.60
2018-01-31T22:18:28.747Z,0.50
2018-01-31T22:20:56.229Z,0.50
2018-01-31T22:23:23.664Z,0.80
2018-01-31T22:25:51.092Z,0.52
2018-01-31T22:28:18.548Z,0.50
2018-01-31T22:30:46.895Z,0.50
2018-01-31T22:33:14.748Z,0.70
2018-01-31T22:35:42.578Z,0.50
2018-01-31T22:38:10.093Z,0.75
2018-01-31T22:40:37.524Z,0.80
2018-01-31T22:43:04.993Z,0.60
2018-01-31T22:45:32.825Z,0.65
2018-01-31T22:48:00.598Z,0.60
2018-01-31T22:50:28.933Z,0.50
2018-01-31T22:52:56.396Z,0.50
2018-01-31T22:55:23.824Z,0.40
2018-01-31T22:57:53.207Z,0.55
2018-01-31T23:00:21.522Z,0.40
2018-01-31T23:02:48.958Z,0.60
2018-01-31T23:05:18.474Z,0.50
2018-01-31T23:07:45.933Z,0.40
2018-01-31T23:10:15.335Z,0.50
2018-01-31T23:12:48.344Z,0.60
2018-01-31T23:15:15.816Z,0.50
2018-01-31T23:17:48.889Z,0.82
2018-01-31T23:20:16.325Z,0.75
2018-01-31T23:22:43.748Z,0.40
2018-01-31T23:25:11.650Z,0.82
2018-01-31T23:27:39.961Z,0.57
2018-01-31T23:30:07.972Z,0.57
2018-01-31T23:32:35.813Z,0.40
2018-01-31T23:35:04.155Z,0.40
2018-01-31T23:37:31.552Z,0.57
2018-01-31T23:39:59.872Z,0.55
2018-01-31T23:42:27.306Z,1.10
2018-01-31T23:44:55.142Z,0.80
2018-01-31T23:47:22.569Z,0.85
2018-01-31T23:49:50.029Z,0.50
2018-01-31T23:52:17.500Z,0.50
2018-01-31T23:54:46.915Z,0.80
2018-01-31T23:57:14.354Z,0.50
2018-01-31T23:59:41.790Z,0.55
